Time;durP1;ratioP1;P1;durP2;ratioP2;P2;SDS_P1;SDS_P2;PMS_P1;PMS_P2;Temp;Humidity;BMP_temperature;BMP_pressure;BME280_temperature;BME280_humidity;BME280_pressure;Samples;Min_cycle;Max_cycle;Signal;HPM_P1;HPM_P2
2021/05/13 00:01:06;;;;;;;22.43;20.80;;;12.50;85.50;;;;;;5030802;28;20484;-74
2021/05/13 00:03:34;;;;;;;22.10;20.70;;;12.60;85.10;;;;;;5028915;28;20460;-75
2021/05/13 00:06:00;;;;;;;22.50;21.10;;;12.50;85.40;;;;;;5037641;28;20443;-75
2021/05/13 00:08:28;;;;;;;22.73;21.27;;;12.40;86.40;;;;;;5035108;28;20848;-76
2021/05/13 00:11:02;;;;;;;22.20;20.60;;;12.40;87.20;;;;;;5036429;28;20570;-75
2021/05/13 00:13:30;;;;;;;22.77;20.70;;;12.50;86.50;;;;;;5028716;28;20499;-75
2021/05/13 00:15:57;;;;;;;21.10;20.00;;;12.40;86.80;;;;;;5034968;28;20467;-74
2021/05/13 00:18:24;;;;;;;21.73;20.50;;;12.40;87.80;;;;;;5027811;28;20466;-75
2021/05/13 00:20:51;;;;;;;22.03;20.50;;;12.40;87.20;;;;;;5033836;28;20484;-75
2021/05/13 00:23:17;;;;;;;22.57;21.13;;;12.40;86.70;;;;;;5029221;28;21068;-77
2021/05/13 00:25:47;;;;;;;22.30;20.80;;;12.40;86.10;;;;;;5031570;28;20560;-75
2021/05/13 00:28:13;;;;;;;22.13;20.93;;;12.40;86.30;;;;;;5028316;28;20533;-75
2021/05/13 00:30:40;;;;;;;22.37;21.07;;;12.40;86.00;;;;;;5034649;28;20462;-75
2021/05/13 00:33:06;;;;;;;21.70;20.50;;;12.40;86.60;;;;;;5036361;28;20546;-75
2021/05/13 00:35:33;;;;;;;23.70;22.13;;;12.40;86.60;;;;;;5031115;28;22405;-75
2021/05/13 00:37:59;;;;;;;23.53;21.97;;;12.30;86.80;;;;;;5033025;28;20994;-75
2021/05/13 00:40:25;;;;;;;23.90;22.10;;;12.30;86.50;;;;;;5032640;28;20532;-76
2021/05/13 00:42:53;;;;;;;23.43;21.70;;;12.40;85.90;;;;;;5036617;28;20460;-76
2021/05/13 00:45:20;;;;;;;22.63;21.20;;;12.50;85.50;;;;;;5030391;28;20570;-75
2021/05/13 00:48:01;;;;;;;22.20;20.90;;;12.40;85.70;;;;;;5033388;28;21015;-75
2021/05/13 00:50:28;;;;;;;24.60;22.60;;;12.40;86.70;;;;;;5028045;28;20471;-74
2021/05/13 00:52:55;;;;;;;22.70;21.40;;;12.30;86.40;;;;;;5028442;28;20882;-75
2021/05/13 00:55:22;;;;;;;23.33;21.80;;;12.30;86.20;;;;;;5028434;28;20516;-74
2021/05/13 00:57:52;;;;;;;22.50;21.10;;;12.30;85.70;;;;;;5026641;28;20826;-75
2021/05/13 01:03:06;;;;;;;22.50;21.03;;;12.40;85.60;;;;;;5028504;28;20509;-74
2021/05/13 01:05:35;;;;;;;22.47;21.13;;;12.30;85.50;;;;;;5034463;28;20550;-75
2021/05/13 01:08:03;;;;;;;22.73;21.53;;;12.30;85.50;;;;;;5031597;28;20498;-75
2021/05/13 01:10:30;;;;;;;22.53;21.33;;;12.30;85.40;;;;;;5031605;28;20550;-75
2021/05/13 01:13:01;;;;;;;22.10;20.90;;;12.20;85.60;;;;;;5038262;28;20471;-75
2021/05/13 01:15:36;;;;;;;22.70;21.27;;;12.20;85.60;;;;;;5029887;28;20980;-78
2021/05/13 01:18:07;;;;;;;23.60;21.97;;;12.20;85.60;;;;;;5031858;28;20957;-76
2021/05/13 01:20:34;;;;;;;23.30;21.90;;;12.20;85.70;;;;;;5032618;28;20474;-78
2021/05/13 01:23:02;;;;;;;22.80;21.60;;;12.20;85.90;;;;;;5028463;28;20937;-76
2021/05/13 01:25:29;;;;;;;22.40;21.20;;;12.10;86.00;;;;;;5031347;28;20892;-76
2021/05/13 01:27:57;;;;;;;23.73;22.13;;;12.10;86.50;;;;;;5027298;28;20511;-76
2021/05/13 01:30:24;;;;;;;23.83;22.33;;;12.10;86.40;;;;;;5031002;28;21039;-78
2021/05/13 01:32:50;;;;;;;22.53;21.00;;;12.20;85.90;;;;;;5044379;28;20480;-76
2021/05/13 01:35:17;;;;;;;28.87;25.83;;;12.30;85.60;;;;;;5028753;28;20549;-78
2021/05/13 01:37:44;;;;;;;23.27;21.90;;;12.20;85.60;;;;;;5033192;28;20929;-76
2021/05/13 01:40:12;;;;;;;23.27;21.83;;;12.20;85.60;;;;;;5029388;28;20583;-80
2021/05/13 01:42:39;;;;;;;22.83;21.50;;;12.10;85.90;;;;;;5028769;28;20574;-81
2021/05/13 01:45:06;;;;;;;22.37;20.93;;;12.20;85.90;;;;;;5028826;28;20547;-79
2021/05/13 01:47:36;;;;;;;22.10;20.80;;;12.20;85.90;;;;;;5035188;28;20472;-76
2021/05/13 01:50:04;;;;;;;21.80;20.60;;;12.10;86.30;;;;;;5027654;28;20561;-80
2021/05/13 01:52:31;;;;;;;22.40;21.00;;;12.10;86.60;;;;;;5030630;28;21017;-77
2021/05/13 01:54:57;;;;;;;21.10;20.00;;;12.10;86.80;;;;;;5025959;28;20463;-77
2021/05/13 01:57:24;;;;;;;21.83;20.63;;;12.10;86.80;;;;;;5025008;28;20460;-76
2021/05/13 01:59:53;;;;;;;22.93;21.40;;;12.00;86.90;;;;;;5026547;28;20579;-78
2021/05/13 02:02:21;;;;;;;22.13;20.90;;;12.00;87.10;;;;;;5029645;28;20992;-80
2021/05/13 02:04:48;;;;;;;21.90;20.70;;;12.00;86.90;;;;;;5025147;28;20471;-76
2021/05/13 02:07:14;;;;;;;21.97;20.80;;;12.10;86.50;;;;;;5029101;28;20973;-78
2021/05/13 02:09:41;;;;;;;22.27;20.90;;;12.00;86.60;;;;;;5027638;28;20452;-77
2021/05/13 02:12:08;;;;;;;21.93;20.73;;;11.90;87.10;;;;;;5031955;28;20970;-76
2021/05/13 02:14:36;;;;;;;21.97;20.77;;;11.90;87.10;;;;;;5027571;28;20464;-76
2021/05/13 02:17:02;;;;;;;22.03;20.57;;;11.90;86.90;;;;;;5030312;28;20496;-75
2021/05/13 02:19:28;;;;;;;21.93;20.43;;;11.80;87.20;;;;;;5010637;28;20477;-76
2021/05/13 02:21:55;;;;;;;22.13;20.93;;;11.70;87.30;;;;;;5025692;28;20770;-75
2021/05/13 02:24:21;;;;;;;23.10;21.70;;;11.80;87.80;;;;;;5027901;28;20675;-78
2021/05/13 02:26:48;;;;;;;21.80;20.60;;;11.80;87.30;;;;;;5028591;28;20953;-77
2021/05/13 02:29:14;;;;;;;21.83;20.53;;;11.80;86.80;;;;;;5026527;28;20952;-77
2021/05/13 02:31:41;;;;;;;21.67;20.47;;;11.90;86.80;;;;;;5038448;28;20485;-77
2021/05/13 02:34:08;;;;;;;22.87;21.17;;;11.90;86.70;;;;;;5030909;28;20455;-80
2021/05/13 02:36:36;;;;;;;22.17;20.87;;;11.90;86.60;;;;;;5033038;28;20462;-76
2021/05/13 02:39:03;;;;;;;23.00;21.50;;;11.90;86.50;;;;;;5027952;28;20476;-83
2021/05/13 02:41:30;;;;;;;22.97;21.30;;;11.90;86.50;;;;;;5025324;28;20476;-78
2021/05/13 02:43:56;;;;;;;22.20;20.63;;;11.90;86.50;;;;;;5027737;28;20571;-79
2021/05/13 02:46:22;;;;;;;21.43;20.03;;;11.90;86.70;;;;;;5034433;28;20828;-78
2021/05/13 02:48:50;;;;;;;20.57;19.47;;;11.90;86.60;;;;;;5044380;28;20512;-77
2021/05/13 02:51:16;;;;;;;21.23;19.83;;;11.80;87.20;;;;;;5027562;28;21140;-76
2021/05/13 02:53:43;;;;;;;21.43;20.13;;;11.80;88.60;;;;;;5028935;28;20537;-79
2021/05/13 02:56:10;;;;;;;26.70;23.90;;;11.80;87.50;;;;;;5027589;28;20487;-81
2021/05/13 02:58:36;;;;;;;21.93;20.53;;;11.70;87.80;;;;;;5029922;28;20471;-76
2021/05/13 03:01:09;;;;;;;22.50;21.07;;;11.70;87.80;;;;;;5032053;28;20487;-79
2021/05/13 03:03:36;;;;;;;22.30;20.50;;;11.60;87.90;;;;;;5030577;28;20464;-78
2021/05/13 03:06:04;;;;;;;21.73;20.53;;;11.60;89.70;;;;;;5041008;28;20459;-76
2021/05/13 03:08:30;;;;;;;23.50;21.63;;;11.60;89.40;;;;;;5030807;28;20551;-76
2021/05/13 03:10:57;;;;;;;23.10;21.80;;;11.50;88.70;;;;;;5038113;28;20537;-76
2021/05/13 03:13:25;;;;;;;22.57;21.27;;;11.50;88.40;;;;;;5036673;28;20455;-80
2021/05/13 03:15:52;;;;;;;21.90;20.67;;;11.50;88.10;;;;;;5030726;28;20502;-77
2021/05/13 03:18:20;;;;;;;40.23;23.70;;;11.60;88.10;;;;;;5029190;28;20460;-80
2021/05/13 03:20:51;;;;;;;22.30;21.10;;;11.60;88.90;;;;;;5034554;28;20482;-78
2021/05/13 03:23:24;;;;;;;22.43;21.23;;;11.70;87.90;;;;;;5029906;28;20482;-79
2021/05/13 03:25:57;;;;;;;22.80;21.20;;;11.70;87.10;;;;;;5028762;28;20463;-75
2021/05/13 03:28:23;;;;;;;22.30;21.17;;;11.70;87.10;;;;;;5028716;28;20565;-80
2021/05/13 03:30:50;;;;;;;21.73;20.40;;;11.70;87.00;;;;;;5036537;28;20969;-77
2021/05/13 03:33:17;;;;;;;25.23;23.33;;;11.60;88.20;;;;;;5035561;28;20866;-78
2021/05/13 03:35:43;;;;;;;21.93;20.50;;;11.50;88.30;;;;;;5032347;28;21284;-78
2021/05/13 03:38:10;;;;;;;22.27;20.87;;;11.50;88.00;;;;;;5035726;28;20475;-78
2021/05/13 03:40:39;;;;;;;23.40;21.83;;;11.50;87.80;;;;;;5036575;28;20484;-78
2021/05/13 03:43:07;;;;;;;29.43;24.80;;;11.50;87.30;;;;;;5047564;28;20867;-77
2021/05/13 03:45:34;;;;;;;22.57;20.97;;;11.50;87.00;;;;;;5031015;28;20490;-79
2021/05/13 03:48:02;;;;;;;24.37;22.27;;;11.50;87.30;;;;;;5035243;28;20459;-76
2021/05/13 03:50:30;;;;;;;23.55;21.90;;;11.40;87.60;;;;;;5029093;28;20944;-75
2021/05/13 03:52:56;;;;;;;25.13;23.23;;;11.50;87.90;;;;;;5029659;28;20264;-76
2021/05/13 03:55:22;;;;;;;22.33;20.93;;;11.50;87.20;;;;;;5030022;28;20550;-75
2021/05/13 03:57:51;;;;;;;22.40;21.10;;;11.50;87.10;;;;;;5027449;28;20451;-78
2021/05/13 04:00:26;;;;;;;21.57;20.20;;;11.50;87.30;;;;;;5030780;28;20852;-75
2021/05/13 04:02:52;;;;;;;21.37;20.17;;;11.40;88.60;;;;;;5030522;28;20451;-75
2021/05/13 04:05:19;;;;;;;23.43;22.07;;;11.40;88.10;;;;;;5032411;28;20461;-79
2021/05/13 04:07:47;;;;;;;23.30;21.80;;;11.40;87.80;;;;;;5029418;28;20542;-78
2021/05/13 04:10:15;;;;;;;23.47;21.30;;;11.40;87.60;;;;;;5029729;28;20454;-75
2021/05/13 04:12:43;;;;;;;22.23;20.83;;;11.40;88.10;;;;;;5029222;28;20487;-75
2021/05/13 04:15:12;;;;;;;23.80;22.23;;;11.30;88.10;;;;;;5028866;28;20466;-74
2021/05/13 04:17:39;;;;;;;23.10;21.70;;;11.40;87.80;;;;;;5028292;28;20452;-75
2021/05/13 04:20:08;;;;;;;24.70;22.60;;;11.40;87.50;;;;;;5029807;28;20499;-75
2021/05/13 04:22:35;;;;;;;23.40;22.00;;;11.40;87.20;;;;;;5028226;28;20480;-74
2021/05/13 04:25:02;;;;;;;24.50;22.60;;;11.50;87.20;;;;;;5025506;28;20453;-74
2021/05/13 04:27:28;;;;;;;22.93;21.57;;;11.70;86.60;;;;;;5026692;28;20456;-74
2021/05/13 04:29:54;;;;;;;23.40;22.03;;;11.80;85.80;;;;;;5027636;28;20895;-75
2021/05/13 04:32:22;;;;;;;24.70;22.90;;;11.90;85.50;;;;;;5034161;28;20492;-74
2021/05/13 04:34:48;;;;;;;23.43;21.93;;;11.90;85.60;;;;;;5027979;28;20451;-73
2021/05/13 04:37:14;;;;;;;206.03;49.20;;;11.90;85.70;;;;;;5028002;28;20456;-73
2021/05/13 04:39:41;;;;;;;24.03;22.43;;;11.90;85.70;;;;;;5028679;28;21016;-74
2021/05/13 04:42:08;;;;;;;23.17;21.97;;;12.10;85.00;;;;;;5027993;28;20914;-74
2021/05/13 04:44:36;;;;;;;25.10;23.40;;;12.10;84.70;;;;;;5027952;28;20460;-74
2021/05/13 04:47:18;;;;;;;24.27;22.77;;;12.20;84.70;;;;;;5026712;28;20468;-74
2021/05/13 04:49:46;;;;;;;22.90;21.60;;;12.20;84.40;;;;;;5028543;28;20463;-74
2021/05/13 04:52:12;;;;;;;23.23;21.93;;;12.30;84.40;;;;;;5043922;28;20495;-74
2021/05/13 04:54:39;;;;;;;23.53;22.23;;;12.30;84.30;;;;;;5028980;28;20523;-74
2021/05/13 04:57:06;;;;;;;24.80;23.23;;;12.30;84.60;;;;;;5029390;28;20495;-74
2021/05/13 04:59:32;;;;;;;23.63;22.17;;;12.40;84.20;;;;;;5027604;28;20993;-74
2021/05/13 05:01:59;;;;;;;28.70;27.10;;;12.40;84.30;;;;;;5029092;28;20574;-74
2021/05/13 05:04:25;;;;;;;24.63;23.23;;;12.30;83.70;;;;;;5028137;28;20480;-74
2021/05/13 05:06:53;;;;;;;25.33;23.70;;;12.20;84.00;;;;;;5026401;28;20463;-74
2021/05/13 05:09:20;;;;;;;24.23;22.73;;;12.30;84.10;;;;;;5029201;28;20452;-75
2021/05/13 05:11:46;;;;;;;24.40;22.80;;;12.30;83.70;;;;;;5030543;28;21076;-74
2021/05/13 05:14:13;;;;;;;25.60;23.63;;;12.30;84.20;;;;;;5028272;28;20522;-74
2021/05/13 05:16:39;;;;;;;25.07;23.43;;;12.30;84.00;;;;;;5026840;28;20547;-74
2021/05/13 05:19:06;;;;;;;67.67;30.43;;;12.50;83.70;;;;;;5029174;28;20901;-75
2021/05/13 05:21:32;;;;;;;27.30;25.00;;;12.50;83.10;;;;;;5028710;28;20985;-74
2021/05/13 05:24:00;;;;;;;28.77;26.00;;;12.60;83.30;;;;;;5028692;28;20529;-75
2021/05/13 05:26:26;;;;;;;25.40;23.80;;;12.70;82.80;;;;;;5027185;28;20467;-74
2021/05/13 05:28:53;;;;;;;25.30;23.80;;;12.70;82.60;;;;;;5037045;28;20896;-74
2021/05/13 05:31:19;;;;;;;26.10;24.50;;;12.80;82.10;;;;;;5030258;28;20486;-75
2021/05/13 05:33:46;;;;;;;25.30;23.80;;;12.70;82.50;;;;;;5031233;28;21152;-75
2021/05/13 05:36:12;;;;;;;26.53;24.87;;;12.70;82.70;;;;;;5029487;28;20817;-75
2021/05/13 05:38:39;;;;;;;26.13;24.73;;;12.90;82.50;;;;;;5028926;28;20454;-75
2021/05/13 05:41:06;;;;;;;25.03;23.47;;;13.10;82.00;;;;;;5028176;28;20537;-75
2021/05/13 05:43:32;;;;;;;24.97;23.57;;;13.20;81.80;;;;;;5028577;28;20448;-75
2021/05/13 05:45:59;;;;;;;24.73;23.37;;;13.40;81.10;;;;;;5029254;28;20533;-74
2021/05/13 05:48:25;;;;;;;26.17;23.90;;;13.60;79.90;;;;;;5029086;28;20928;-76
2021/05/13 05:50:51;;;;;;;26.53;24.63;;;13.70;79.10;;;;;;5027475;28;20579;-75
2021/05/13 05:53:18;;;;;;;26.70;25.03;;;13.80;78.20;;;;;;5027334;28;20460;-75
2021/05/13 05:55:44;;;;;;;26.23;24.70;;;13.90;77.70;;;;;;5027156;28;20467;-74
2021/05/13 05:58:11;;;;;;;25.83;24.33;;;14.00;77.20;;;;;;5027649;28;20546;-75
2021/05/13 06:00:38;;;;;;;25.70;23.90;;;14.00;76.90;;;;;;5026898;28;20488;-75
2021/05/13 06:03:05;;;;;;;27.30;25.40;;;14.00;77.20;;;;;;5026237;28;20509;-79
2021/05/13 06:05:32;;;;;;;27.80;26.20;;;14.10;76.70;;;;;;5028756;28;20909;-78
2021/05/13 06:07:58;;;;;;;27.03;25.33;;;14.20;75.80;;;;;;5026903;28;20459;-80
2021/05/13 06:10:25;;;;;;;26.57;25.10;;;14.20;75.70;;;;;;5037112;28;20481;-74
2021/05/13 06:12:53;;;;;;;27.10;25.60;;;14.30;75.20;;;;;;5034569;28;20576;-75
2021/05/13 06:15:22;;;;;;;27.77;25.97;;;14.30;74.80;;;;;;5028168;28;20883;-77
2021/05/13 06:17:48;;;;;;;27.40;25.80;;;14.30;75.20;;;;;;5027942;28;20471;-76
2021/05/13 06:20:20;;;;;;;27.43;25.53;;;14.40;74.50;;;;;;5028989;28;20577;-75
2021/05/13 06:22:47;;;;;;;27.13;25.40;;;14.50;74.60;;;;;;5026585;28;20971;-74
2021/05/13 06:25:14;;;;;;;27.83;25.97;;;14.50;74.20;;;;;;5027304;28;20460;-76
2021/05/13 06:27:41;;;;;;;27.30;25.70;;;14.60;73.90;;;;;;5029815;28;20451;-75
2021/05/13 06:30:08;;;;;;;26.40;24.90;;;14.70;73.30;;;;;;5031424;28;20585;-76
2021/05/13 06:32:36;;;;;;;29.50;27.60;;;14.70;74.10;;;;;;5032131;28;20554;-76
2021/05/13 06:35:03;;;;;;;26.60;25.03;;;14.70;74.20;;;;;;5032315;28;22157;-75
2021/05/13 06:37:29;;;;;;;27.33;25.83;;;14.80;73.70;;;;;;5031490;28;20451;-77
2021/05/13 06:39:56;;;;;;;26.43;24.77;;;14.90;73.30;;;;;;5030909;28;20489;-76
2021/05/13 06:42:22;;;;;;;26.93;25.30;;;15.10;73.00;;;;;;5044189;28;20478;-76
2021/05/13 06:44:48;;;;;;;27.47;25.47;;;15.10;72.70;;;;;;5031314;28;20459;-76
2021/05/13 06:47:15;;;;;;;29.17;26.50;;;15.20;72.90;;;;;;5030949;28;20984;-76
2021/05/13 06:49:42;;;;;;;25.63;24.13;;;15.20;69.80;;;;;;5032583;28;20555;-76
2021/05/13 06:52:08;;;;;;;26.50;24.77;;;15.10;70.10;;;;;;5037347;28;21055;-75
2021/05/13 06:54:35;;;;;;;41.27;26.90;;;15.20;69.20;;;;;;5032014;28;20528;-74
2021/05/13 06:57:02;;;;;;;49.10;28.63;;;15.10;68.80;;;;;;5017507;28;20450;-74
2021/05/13 06:59:28;;;;;;;37.80;26.03;;;15.10;68.80;;;;;;5036565;28;21192;-73
2021/05/13 07:01:55;;;;;;;25.47;23.80;;;15.20;69.20;;;;;;5022801;28;20506;-75
2021/05/13 07:04:22;;;;;;;26.67;24.50;;;15.30;68.90;;;;;;5028597;28;20468;-75
2021/05/13 07:06:49;;;;;;;56.13;29.00;;;15.40;68.40;;;;;;5023129;28;20455;-76
2021/05/13 07:09:16;;;;;;;27.17;25.17;;;15.50;68.30;;;;;;5028197;28;20467;-76
2021/05/13 07:11:42;;;;;;;25.57;24.00;;;15.60;68.30;;;;;;5029351;28;20533;-75
2021/05/13 07:14:09;;;;;;;26.90;25.10;;;15.90;67.90;;;;;;5025223;28;20465;-76
2021/05/13 07:16:36;;;;;;;26.57;24.73;;;16.10;67.20;;;;;;5030092;28;20542;-73
2021/05/13 07:19:03;;;;;;;25.90;24.40;;;16.00;67.20;;;;;;5029438;28;20474;-73
2021/05/13 07:21:29;;;;;;;33.70;29.00;;;16.00;67.10;;;;;;5032816;28;20584;-73
2021/05/13 07:23:57;;;;;;;27.17;25.37;;;16.00;66.80;;;;;;5022267;28;20460;-73
2021/05/13 07:26:24;;;;;;;28.87;26.40;;;16.10;67.10;;;;;;5021599;28;20907;-72
2021/05/13 07:28:51;;;;;;;27.27;25.30;;;16.10;66.80;;;;;;5026396;28;20472;-72
2021/05/13 07:31:19;;;;;;;30.50;27.80;;;16.30;66.50;;;;;;5029396;28;20475;-72
2021/05/13 07:33:45;;;;;;;28.63;27.03;;;16.40;66.30;;;;;;5025651;28;20467;-71
2021/05/13 07:36:12;;;;;;;27.00;25.40;;;16.50;66.30;;;;;;5029023;28;20460;-73
2021/05/13 07:38:39;;;;;;;49.93;29.47;;;16.60;66.20;;;;;;5028702;28;20471;-72
2021/05/13 07:41:07;;;;;;;27.63;25.37;;;16.70;65.00;;;;;;5022706;28;20478;-72
2021/05/13 07:43:36;;;;;;;26.30;24.60;;;16.60;65.60;;;;;;5030438;28;20484;-74
2021/05/13 07:46:04;;;;;;;104.40;37.20;;;16.60;65.20;;;;;;5028057;28;20548;-72
2021/05/13 07:48:32;;;;;;;26.93;24.87;;;16.50;65.10;;;;;;5029754;28;20451;-73
2021/05/13 07:50:58;;;;;;;26.00;24.30;;;16.60;65.10;;;;;;5027778;28;20483;-72
2021/05/13 07:53:25;;;;;;;24.67;23.17;;;16.60;65.00;;;;;;5036694;28;20802;-72
2021/05/13 07:55:52;;;;;;;27.10;24.63;;;16.50;64.40;;;;;;5029562;28;20525;-73
2021/05/13 07:58:19;;;;;;;26.00;24.30;;;16.60;64.90;;;;;;5029388;28;20480;-73
2021/05/13 08:00:45;;;;;;;28.10;25.90;;;16.90;63.60;;;;;;5034996;28;20520;-73
2021/05/13 08:03:12;;;;;;;26.17;24.57;;;17.00;63.20;;;;;;5033187;28;20463;-73
2021/05/13 08:05:39;;;;;;;26.70;24.97;;;17.10;62.70;;;;;;5025620;28;20991;-72
2021/05/13 08:08:06;;;;;;;27.23;25.63;;;17.10;62.30;;;;;;5028656;28;20483;-73
2021/05/13 08:10:32;;;;;;;28.80;27.10;;;16.90;63.10;;;;;;5028796;28;20443;-73
2021/05/13 08:12:59;;;;;;;26.47;24.77;;;17.10;62.60;;;;;;5027499;28;20604;-73
2021/05/13 08:15:26;;;;;;;25.90;24.40;;;17.10;62.00;;;;;;5029423;28;21039;-73
2021/05/13 08:17:53;;;;;;;25.87;24.37;;;17.00;62.30;;;;;;5030135;28;20448;-72
2021/05/13 08:20:20;;;;;;;26.77;24.87;;;17.20;62.10;;;;;;5029589;28;20479;-73
2021/05/13 08:22:47;;;;;;;25.77;24.27;;;17.30;62.20;;;;;;5026614;28;20516;-73
2021/05/13 08:25:19;;;;;;;26.03;24.53;;;17.60;62.00;;;;;;5034145;28;20535;-74
2021/05/13 08:27:47;;;;;;;25.83;24.33;;;17.80;61.10;;;;;;5019664;28;20468;-73
2021/05/13 08:30:14;;;;;;;32.20;25.27;;;18.00;60.30;;;;;;5028973;28;20597;-72
2021/05/13 08:32:42;;;;;;;28.23;25.50;;;18.20;59.80;;;;;;5025958;28;20826;-73
2021/05/13 08:35:09;;;;;;;29.73;26.70;;;18.40;58.90;;;;;;5029199;28;20954;-73
2021/05/13 08:37:36;;;;;;;25.70;24.30;;;18.50;58.10;;;;;;5025094;28;22990;-74
2021/05/13 08:40:04;;;;;;;26.30;24.70;;;18.50;57.90;;;;;;5028209;28;20476;-73
2021/05/13 08:42:31;;;;;;;25.70;24.20;;;18.20;58.10;;;;;;5028957;28;20494;-73
2021/05/13 08:44:57;;;;;;;25.53;24.13;;;18.10;58.10;;;;;;5029581;28;20999;-74
2021/05/13 08:47:24;;;;;;;25.33;24.03;;;18.00;59.00;;;;;;5033503;28;20460;-73
2021/05/13 08:49:51;;;;;;;29.53;27.43;;;17.90;58.80;;;;;;5028067;28;20784;-73
2021/05/13 08:52:19;;;;;;;26.70;25.10;;;18.00;59.40;;;;;;5033192;28;20547;-74
2021/05/13 08:54:53;;;;;;;25.67;24.17;;;18.10;59.10;;;;;;5028008;28;20513;-73
2021/05/13 08:57:20;;;;;;;26.70;24.83;;;18.10;58.70;;;;;;5021952;28;20460;-74
2021/05/13 08:59:46;;;;;;;25.20;23.60;;;18.10;58.70;;;;;;5028195;28;20486;-74
2021/05/13 09:02:15;;;;;;;25.93;24.30;;;18.10;58.60;;;;;;5032574;28;20907;-75
2021/05/13 09:04:43;;;;;;;26.07;24.70;;;18.10;58.40;;;;;;5029485;28;20452;-74
2021/05/13 09:07:14;;;;;;;27.90;26.20;;;18.20;58.40;;;;;;5034569;28;20486;-74
2021/05/13 09:09:55;;;;;;;25.60;24.10;;;18.10;58.70;;;;;;5029315;28;20459;-75
2021/05/13 09:12:23;;;;;;;26.43;24.90;;;18.10;58.70;;;;;;5023537;28;20562;-77
2021/05/13 09:15:00;;;;;;;25.97;24.47;;;18.30;58.10;;;;;;5028544;28;20472;-74
2021/05/13 09:17:28;;;;;;;27.67;25.80;;;18.60;57.40;;;;;;5023297;28;20448;-75
2021/05/13 09:19:56;;;;;;;26.70;25.20;;;18.90;56.40;;;;;;5028194;28;20920;-75
2021/05/13 09:22:24;;;;;;;26.37;24.93;;;19.00;55.90;;;;;;5036548;28;20475;-75
2021/05/13 09:24:54;;;;;;;25.53;24.13;;;18.80;56.70;;;;;;5033956;28;20503;-75
2021/05/13 09:27:33;;;;;;;26.40;24.70;;;19.20;56.40;;;;;;5020375;28;20864;-74
2021/05/13 09:30:04;;;;;;;27.37;25.70;;;19.40;56.60;;;;;;5028912;28;20455;-76
2021/05/13 09:32:31;;;;;;;27.17;25.67;;;19.40;56.30;;;;;;5037598;28;20510;-76
2021/05/13 09:35:05;;;;;;;27.20;25.50;;;19.50;55.10;;;;;;5037344;28;20462;-75
2021/05/13 09:37:38;;;;;;;29.30;26.50;;;19.70;54.40;;;;;;5019805;28;20993;-75
2021/05/13 09:40:06;;;;;;;26.40;24.60;;;19.90;54.60;;;;;;5028066;28;20490;-75
2021/05/13 09:42:32;;;;;;;30.30;28.30;;;20.00;54.50;;;;;;5034735;28;20482;-74
2021/05/13 09:44:59;;;;;;;26.50;24.97;;;20.10;54.80;;;;;;5026696;28;20487;-81
2021/05/13 09:47:27;;;;;;;29.40;27.60;;;20.30;55.40;;;;;;5031071;28;20467;-77
2021/05/13 09:49:59;;;;;;;27.80;26.10;;;20.30;55.30;;;;;;5030630;28;20494;-76
2021/05/13 09:52:47;;;;;;;27.33;25.27;;;20.40;54.70;;;;;;5026600;28;20479;-76
2021/05/13 09:55:25;;;;;;;94.87;35.63;;;20.30;54.80;;;;;;5027567;28;20466;-75
2021/05/13 09:57:54;;;;;;;26.97;24.97;;;20.30;54.90;;;;;;5026414;28;20910;-76
2021/05/13 10:00:44;;;;;;;28.23;26.13;;;20.30;53.90;;;;;;5027852;28;20570;-77
2021/05/13 10:03:13;;;;;;;32.47;25.63;;;20.30;53.20;;;;;;5022543;28;20479;-76
2021/05/13 10:05:42;;;;;;;26.90;25.10;;;20.20;53.30;;;;;;5028467;28;20464;-76
2021/05/13 10:08:10;;;;;;;27.27;25.10;;;20.10;53.70;;;;;;5028011;28;20467;-75
2021/05/13 10:10:38;;;;;;;27.63;25.93;;;20.50;53.60;;;;;;5033328;28;20510;-75
2021/05/13 10:13:06;;;;;;;30.83;28.73;;;20.70;52.50;;;;;;5028103;28;20535;-74
2021/05/13 10:15:34;;;;;;;26.07;24.27;;;20.60;51.60;;;;;;5028335;28;20460;-75
2021/05/13 10:18:07;;;;;;;26.20;24.40;;;20.70;51.50;;;;;;5028570;28;21084;-75
2021/05/13 10:20:33;;;;;;;26.77;25.23;;;21.10;50.80;;;;;;5025545;28;20544;-76
2021/05/13 10:23:01;;;;;;;25.07;23.50;;;21.40;48.50;;;;;;5027650;28;20456;-76
2021/05/13 10:25:30;;;;;;;26.27;23.57;;;21.00;47.90;;;;;;5034442;28;20459;-76
2021/05/13 10:27:58;;;;;;;24.60;23.17;;;20.70;48.40;;;;;;5028316;28;20499;-76
2021/05/13 10:30:29;;;;;;;28.03;26.37;;;20.20;48.70;;;;;;5020425;28;20513;-75
2021/05/13 10:33:16;;;;;;;25.47;23.70;;;19.70;50.20;;;;;;5033413;28;20511;-75
2021/05/13 10:36:07;;;;;;;31.47;29.87;;;19.40;51.10;;;;;;5034783;28;20462;-75
2021/05/13 10:38:45;;;;;;;26.23;24.63;;;19.10;51.80;;;;;;5027193;28;20594;-75
2021/05/13 10:41:40;;;;;;;25.83;23.50;;;18.80;52.90;;;;;;5027931;28;20479;-75
2021/05/13 10:44:36;;;;;;;25.13;23.63;;;19.00;52.90;;;;;;5015374;28;20483;-76
2021/05/13 10:47:03;;;;;;;27.63;26.10;;;19.50;52.30;;;;;;5038207;28;20471;-76
2021/05/13 10:49:30;;;;;;;26.10;24.60;;;19.60;52.20;;;;;;5036048;28;21208;-76
2021/05/13 10:51:58;;;;;;;24.40;22.80;;;19.60;51.90;;;;;;5039272;28;20529;-78
2021/05/13 10:54:46;;;;;;;25.23;23.77;;;19.60;51.90;;;;;;5028062;28;20460;-76
2021/05/13 10:57:19;;;;;;;27.33;25.73;;;19.00;53.00;;;;;;5025341;28;20478;-77
2021/05/13 11:00:19;;;;;;;24.37;23.07;;;19.10;54.10;;;;;;5026681;28;20574;-77
2021/05/13 11:02:47;;;;;;;26.50;25.00;;;19.30;54.60;;;;;;5025001;28;20885;-76
2021/05/13 11:05:50;;;;;;;26.67;24.67;;;19.30;54.90;;;;;;5026981;28;20750;-76
2021/05/13 11:08:44;;;;;;;32.63;25.40;;;19.40;55.10;;;;;;5026999;28;20542;-76
2021/05/13 11:11:11;;;;;;;23.63;22.33;;;19.30;54.70;;;;;;5033568;28;20498;-76
2021/05/13 11:14:10;;;;;;;24.60;23.00;;;19.40;54.60;;;;;;5027414;28;20459;-75
2021/05/13 11:16:55;;;;;;;23.87;22.67;;;19.60;54.60;;;;;;5037073;28;20535;-76
2021/05/13 11:19:24;;;;;;;23.90;22.50;;;19.90;54.40;;;;;;5028235;28;20455;-77
2021/05/13 11:22:06;;;;;;;24.07;22.67;;;20.20;53.40;;;;;;5036880;28;20949;-76
2021/05/13 11:24:35;;;;;;;24.57;22.97;;;20.50;52.70;;;;;;5029914;28;20459;-75
2021/05/13 11:27:01;;;;;;;24.53;23.23;;;20.60;52.60;;;;;;5037460;28;20460;-76
2021/05/13 11:29:42;;;;;;;32.07;30.37;;;20.70;51.90;;;;;;5030960;28;20513;-75
2021/05/13 11:32:10;;;;;;;24.30;22.90;;;20.90;49.20;;;;;;5036124;28;21327;-76
2021/05/13 11:34:40;;;;;;;24.73;23.23;;;20.90;49.20;;;;;;5029636;28;20607;-76
2021/05/13 11:37:07;;;;;;;24.70;23.40;;;20.30;46.20;;;;;;5028371;28;20494;-76
2021/05/13 11:39:34;;;;;;;25.23;23.83;;;20.00;47.50;;;;;;5032348;28;20455;-77
2021/05/13 11:42:01;;;;;;;24.50;23.00;;;19.40;50.00;;;;;;5030159;28;20487;-77
2021/05/13 11:44:29;;;;;;;25.53;24.03;;;19.10;52.20;;;;;;5031872;28;20483;-79
2021/05/13 11:46:55;;;;;;;25.93;24.30;;;18.90;52.60;;;;;;5032434;28;20456;-78
2021/05/13 11:49:22;;;;;;;24.73;23.33;;;18.80;54.00;;;;;;5029567;28;20456;-78
2021/05/13 11:51:48;;;;;;;24.10;22.80;;;18.90;54.50;;;;;;5030005;28;20554;-78
2021/05/13 11:54:15;;;;;;;25.03;23.53;;;19.10;54.20;;;;;;5035213;28;20542;-78
2021/05/13 11:56:43;;;;;;;25.00;23.50;;;19.20;53.90;;;;;;5029685;28;20542;-79
2021/05/13 11:59:10;;;;;;;24.70;23.40;;;19.30;54.00;;;;;;5030066;28;20455;-75
2021/05/13 12:01:38;;;;;;;24.90;23.37;;;19.40;52.40;;;;;;5033723;28;20745;-76
2021/05/13 12:04:09;;;;;;;24.53;23.27;;;19.50;52.30;;;;;;5032300;28;20463;-72
2021/05/13 12:06:44;;;;;;;25.07;23.57;;;19.40;52.20;;;;;;5035668;28;20459;-73
2021/05/13 12:09:11;;;;;;;29.93;28.33;;;19.60;53.50;;;;;;5020332;28;20454;-76
2021/05/13 12:11:38;;;;;;;25.47;23.60;;;19.80;53.10;;;;;;5034823;28;20464;-78
2021/05/13 12:14:07;;;;;;;24.07;22.77;;;20.10;52.60;;;;;;5034381;28;20467;-76
2021/05/13 12:16:34;;;;;;;24.30;22.90;;;20.40;51.40;;;;;;5030944;28;20466;-77
2021/05/13 12:19:05;;;;;;;26.83;25.50;;;20.40;49.80;;;;;;5037870;28;20457;-78
2021/05/13 12:21:34;;;;;;;24.10;22.60;;;20.40;50.10;;;;;;5037538;28;20482;-81
2021/05/13 12:24:01;;;;;;;22.93;21.73;;;20.30;49.30;;;;;;5029233;28;20452;-76
2021/05/13 12:26:31;;;;;;;25.00;23.50;;;20.20;48.80;;;;;;5029970;28;20440;-78
2021/05/13 12:28:58;;;;;;;23.70;22.40;;;20.30;47.70;;;;;;5021541;28;20500;-76
2021/05/13 12:31:32;;;;;;;23.70;22.40;;;20.50;47.80;;;;;;5028428;28;20487;-77
2021/05/13 12:34:04;;;;;;;23.40;22.20;;;20.60;48.10;;;;;;5029072;28;20459;-75
2021/05/13 12:36:32;;;;;;;23.63;22.40;;;20.70;48.40;;;;;;5023988;28;20488;-76